createdAt,value
2019-03-03T07:17:57.169Z,22.62
2019-03-03T07:20:25.848Z,23.47
2019-03-03T07:22:54.525Z,24.70
2019-03-03T07:25:23.405Z,22.57
2019-03-03T07:27:52.204Z,23.43
2019-03-03T07:30:20.937Z,22.17
2019-03-03T07:32:54.484Z,24.53
2019-03-03T07:35:23.164Z,23.67
2019-03-03T07:37:52.062Z,23.53
2019-03-03T07:40:20.887Z,23.97
2019-03-03T07:42:49.631Z,25.50
2019-03-03T07:45:18.444Z,26.73
2019-03-03T07:47:47.115Z,24.70
2019-03-03T07:50:15.586Z,25.57
2019-03-03T07:52:44.167Z,24.53
2019-03-03T07:55:13.816Z,24.97
2019-03-03T07:57:42.461Z,23.50
2019-03-03T08:00:17.091Z,25.43
2019-03-03T08:02:47.424Z,25.43
2019-03-03T08:05:16.195Z,23.60
2019-03-03T08:07:44.765Z,24.87
2019-03-03T08:10:15.930Z,23.77
2019-03-03T08:12:44.609Z,23.77
2019-03-03T08:15:16.050Z,22.47
2019-03-03T08:17:44.733Z,24.03
2019-03-03T08:20:14.450Z,24.37
2019-03-03T08:22:43.250Z,22.23
2019-03-03T08:25:13.041Z,22.60
2019-03-03T08:27:43.412Z,22.60
2019-03-03T08:30:14.936Z,23.80
2019-03-03T08:32:43.733Z,22.83
2019-03-03T08:35:15.580Z,23.30
2019-03-03T08:37:44.373Z,23.07
2019-03-03T08:40:14.779Z,23.33
2019-03-03T08:42:45.210Z,22.87
2019-03-03T08:45:33.689Z,23.33
2019-03-03T08:48:07.091Z,22.83
2019-03-03T08:50:46.891Z,22.53
2019-03-03T08:53:20.488Z,20.90
2019-03-03T08:55:56.761Z,20.70
2019-03-03T08:58:36.395Z,20.53
2019-03-03T09:01:07.328Z,20.17
2019-03-03T09:03:43.358Z,20.07
2019-03-03T09:06:29.941Z,19.20
2019-03-03T09:09:02.308Z,21.07
2019-03-03T09:11:35.271Z,19.17
2019-03-03T09:14:05.491Z,19.77
2019-03-03T09:16:51.484Z,19.30
2019-03-03T09:19:38.148Z,18.67
2019-03-03T09:22:14.354Z,18.80
2019-03-03T09:24:50.480Z,17.87
2019-03-03T09:27:20.813Z,17.90
2019-03-03T09:30:07.311Z,17.50
2019-03-03T09:32:40.505Z,17.27
2019-03-03T09:35:10.723Z,17.03
2019-03-03T09:37:46.533Z,16.27
2019-03-03T09:40:16.893Z,17.03
2019-03-03T09:42:47.224Z,15.97
2019-03-03T09:45:19.814Z,14.93
2019-03-03T09:47:53.586Z,14.43
2019-03-03T09:50:38.733Z,16.07
2019-03-03T09:53:14.884Z,15.63
2019-03-03T09:55:47.705Z,14.70
2019-03-03T09:58:17.931Z,17.20
2019-03-03T10:01:04.310Z,13.87
2019-03-03T10:03:43.652Z,14.17
2019-03-03T10:06:16.756Z,13.37
2019-03-03T10:08:46.963Z,13.33
2019-03-03T10:11:17.296Z,14.70
2019-03-03T10:13:47.517Z,13.17
2019-03-03T10:16:35.811Z,13.63
2019-03-03T10:19:07.086Z,13.20
2019-03-03T10:21:37.731Z,12.77
2019-03-03T10:24:17.065Z,12.03
2019-03-03T10:27:03.773Z,12.00
2019-03-03T10:29:43.013Z,11.30
2019-03-03T10:32:13.322Z,10.83
2019-03-03T10:34:52.683Z,11.57
2019-03-03T10:37:22.901Z,10.40
2019-03-03T10:40:08.335Z,9.80
2019-03-03T10:42:50.570Z,11.27
2019-03-03T10:45:36.860Z,8.73
2019-03-03T10:48:10.156Z,9.60
2019-03-03T10:50:46.485Z,9.87
2019-03-03T10:53:16.844Z,8.93
2019-03-03T10:55:47.283Z,8.97
2019-03-03T10:58:23.403Z,8.70
2019-03-03T11:00:53.885Z,10.60
2019-03-03T11:03:41.844Z,9.63
2019-03-03T11:06:17.644Z,8.60
2019-03-03T11:08:56.638Z,8.77
2019-03-03T11:11:29.926Z,9.50
2019-03-03T11:14:15.036Z,8.97
2019-03-03T11:17:01.874Z,7.70
2019-03-03T11:19:44.141Z,8.50
2019-03-03T11:22:19.582Z,8.00
2019-03-03T11:24:59.022Z,7.83
2019-03-03T11:27:35.287Z,7.50
2019-03-03T11:30:23.362Z,6.97
2019-03-03T11:33:11.276Z,6.73
2019-03-03T11:35:42.038Z,6.70
2019-03-03T11:38:18.678Z,6.83
2019-03-03T11:40:57.879Z,7.27
2019-03-03T11:43:31.872Z,12.53
2019-03-03T11:46:14.190Z,9.77
2019-03-03T11:48:55.590Z,7.87
2019-03-03T11:51:39.351Z,7.90
2019-03-03T11:54:09.913Z,7.03
2019-03-03T11:56:40.582Z,7.00
2019-03-03T11:59:26.899Z,7.43
2019-03-03T12:02:13.305Z,6.93
2019-03-03T12:04:46.570Z,6.97
2019-03-03T12:07:23.061Z,6.70
2019-03-03T12:10:05.620Z,6.90
2019-03-03T12:12:35.977Z,6.97
2019-03-03T12:15:09.078Z,6.63
2019-03-03T12:17:39.503Z,7.97
2019-03-03T12:20:16.087Z,6.90
2019-03-03T12:23:02.765Z,6.47
2019-03-03T12:25:46.050Z,6.47
2019-03-03T12:28:16.627Z,7.37
2019-03-03T12:30:49.984Z,6.40
2019-03-03T12:33:29.465Z,7.77
2019-03-03T12:36:04.895Z,6.30
2019-03-03T12:38:51.011Z,6.50
2019-03-03T12:41:36.377Z,6.83
2019-03-03T12:44:06.691Z,6.03
2019-03-03T12:46:46.857Z,5.53
2019-03-03T12:49:33.330Z,6.83
2019-03-03T12:52:04.605Z,5.57
2019-03-03T12:54:50.362Z,5.87
2019-03-03T12:57:23.167Z,6.00
2019-03-03T13:00:11.518Z,6.50
2019-03-03T13:02:55.954Z,7.87
2019-03-03T13:05:41.558Z,6.83
2019-03-03T13:08:15.017Z,6.47
2019-03-03T13:10:47.342Z,5.77
2019-03-03T13:13:34.381Z,6.93
2019-03-03T13:16:07.737Z,6.53
2019-03-03T13:18:38.547Z,6.43
2019-03-03T13:21:14.709Z,6.90
2019-03-03T13:23:47.698Z,6.60
2019-03-03T13:26:33.453Z,6.33
2019-03-03T13:29:07.060Z,6.87
2019-03-03T13:31:52.539Z,6.70
2019-03-03T13:34:31.786Z,7.30
2019-03-03T13:37:03.815Z,8.60
2019-03-03T13:39:49.203Z,7.50
2019-03-03T13:42:19.729Z,7.20
2019-03-03T13:44:50.349Z,6.97
2019-03-03T13:47:19.468Z,6.80
2019-03-03T13:49:48.581Z,8.43
2019-03-03T13:52:17.490Z,8.70
2019-03-03T13:54:46.495Z,8.03
2019-03-03T13:57:15.474Z,7.60
2019-03-03T13:59:44.244Z,7.23
2019-03-03T14:02:13.249Z,7.03
2019-03-03T14:04:42.051Z,7.63
2019-03-03T14:07:11.137Z,7.03
2019-03-03T14:09:39.918Z,7.30
2019-03-03T14:12:10.412Z,7.60
2019-03-03T14:14:39.242Z,7.93
2019-03-03T14:17:08.145Z,7.70
2019-03-03T14:19:36.840Z,6.80
2019-03-03T14:22:05.582Z,7.03
2019-03-03T14:24:34.390Z,6.30
2019-03-03T14:27:10.340Z,6.93
2019-03-03T14:29:33.703Z,7.20
2019-03-03T14:32:02.429Z,7.30
2019-03-03T14:34:32.985Z,7.13
2019-03-03T14:37:01.708Z,6.80
2019-03-03T14:39:30.592Z,7.47
2019-03-03T14:41:59.823Z,6.30
2019-03-03T14:44:30.159Z,6.10
2019-03-03T14:46:59.141Z,6.47
2019-03-03T14:49:28.115Z,6.70
2019-03-03T14:51:56.887Z,8.33
2019-03-03T14:54:25.741Z,6.57
2019-03-03T14:56:54.683Z,7.30
2019-03-03T14:59:24.819Z,6.97
2019-03-03T15:01:53.663Z,7.27
2019-03-03T15:04:22.692Z,7.30
2019-03-03T15:06:53.020Z,7.17
2019-03-03T15:09:23.012Z,7.33
2019-03-03T15:11:52.098Z,7.73
2019-03-03T15:14:21.087Z,7.47
2019-03-03T15:16:50.172Z,7.57
2019-03-03T15:19:19.341Z,7.57
2019-03-03T15:21:48.198Z,8.17
2019-03-03T15:24:16.803Z,8.00
2019-03-03T15:26:45.569Z,9.50
2019-03-03T15:29:14.543Z,8.10
2019-03-03T15:31:43.171Z,8.30
2019-03-03T15:34:12.263Z,8.27
2019-03-03T15:36:41.077Z,8.10
2019-03-03T15:39:11.568Z,9.03
2019-03-03T15:41:40.558Z,8.33
2019-03-03T15:44:09.650Z,8.97
2019-03-03T15:46:38.487Z,10.03
2019-03-03T15:49:08.687Z,9.40
2019-03-03T15:51:37.717Z,8.83
2019-03-03T15:54:07.661Z,9.07
2019-03-03T15:56:36.645Z,8.97
2019-03-03T15:59:05.565Z,7.80
2019-03-03T16:01:36.030Z,8.67
2019-03-03T16:04:04.957Z,10.37
2019-03-03T16:06:33.797Z,9.70
2019-03-03T16:09:04.064Z,11.07
2019-03-03T16:11:32.918Z,10.97
2019-03-03T16:14:01.477Z,11.13
2019-03-03T16:16:30.320Z,10.40
2019-03-03T16:18:59.138Z,10.10
2019-03-03T16:21:28.202Z,8.93
2019-03-03T16:23:57.001Z,10.43
2019-03-03T16:26:25.678Z,10.10
2019-03-03T16:28:54.773Z,9.50
2019-03-03T16:31:25.353Z,10.57
2019-03-03T16:33:54.473Z,10.20
2019-03-03T16:36:23.367Z,9.57
2019-03-03T16:38:52.061Z,10.60
2019-03-03T16:41:20.639Z,8.63
2019-03-03T16:43:49.540Z,9.13
2019-03-03T16:46:18.181Z,10.03
2019-03-03T16:48:47.033Z,11.77
2019-03-03T16:51:15.794Z,11.43
2019-03-03T16:53:44.479Z,11.07
2019-03-03T16:56:13.358Z,10.77
2019-03-03T16:58:43.282Z,12.17
2019-03-03T17:01:11.951Z,11.03
2019-03-03T17:03:40.619Z,11.70
2019-03-03T17:06:09.849Z,12.17
2019-03-03T17:08:39.769Z,11.80
2019-03-03T17:11:08.569Z,11.27
2019-03-03T17:13:37.338Z,9.90
2019-03-03T17:16:06.223Z,9.63
2019-03-03T17:18:34.897Z,9.87
2019-03-03T17:21:03.792Z,10.00
2019-03-03T17:23:32.705Z,10.60
2019-03-03T17:26:02.053Z,11.13
2019-03-03T17:28:30.867Z,11.47
2019-03-03T17:30:59.738Z,10.93
2019-03-03T17:33:28.551Z,10.63
2019-03-03T17:35:57.864Z,11.07
2019-03-03T17:38:26.984Z,10.20
2019-03-03T17:40:56.149Z,11.40
2019-03-03T17:43:24.926Z,11.50
2019-03-03T17:45:53.726Z,10.53
2019-03-03T17:48:22.486Z,11.17
2019-03-03T17:50:52.644Z,11.30
2019-03-03T17:53:21.444Z,10.67
2019-03-03T17:55:50.404Z,11.60
2019-03-03T17:58:18.964Z,10.90
2019-03-03T18:00:48.680Z,9.53
2019-03-03T18:03:18.008Z,10.07
2019-03-03T18:05:46.570Z,10.00
2019-03-03T18:08:15.303Z,9.37
2019-03-03T18:10:43.943Z,10.63
2019-03-03T18:13:12.981Z,9.43
2019-03-03T18:15:44.710Z,9.83
2019-03-03T18:18:13.728Z,9.27
2019-03-03T18:20:42.256Z,10.23
2019-03-03T18:23:11.274Z,10.90
2019-03-03T18:25:40.030Z,10.83
2019-03-03T18:28:09.052Z,11.77
2019-03-03T18:30:37.784Z,10.90
2019-03-03T18:33:06.784Z,12.60
2019-03-03T18:35:35.384Z,11.70
2019-03-03T18:38:03.982Z,12.23
2019-03-03T18:40:32.764Z,11.93
2019-03-03T18:46:41.734Z,12.03
2019-03-03T18:49:13.404Z,11.10
2019-03-03T18:51:42.240Z,11.07
2019-03-03T18:54:11.135Z,9.97
2019-03-03T18:56:39.917Z,9.80
2019-03-03T18:59:08.630Z,9.67
2019-03-03T19:01:37.389Z,10.43
2019-03-03T19:04:05.863Z,9.83
2019-03-03T19:06:34.987Z,10.63
2019-03-03T19:09:04.049Z,9.67
2019-03-03T19:11:32.538Z,9.57
2019-03-03T19:14:01.119Z,9.70
2019-03-03T19:16:29.921Z,9.70
2019-03-03T19:19:00.441Z,9.73
2019-03-03T19:21:29.239Z,9.50
2019-03-03T19:23:58.139Z,9.47
2019-03-03T19:26:27.046Z,8.87
2019-03-03T19:28:55.731Z,10.40
2019-03-03T19:31:24.619Z,9.83
2019-03-03T19:33:55.552Z,10.83
2019-03-03T19:36:25.750Z,10.17
2019-03-03T19:38:54.417Z,10.63
2019-03-03T19:41:23.177Z,10.53
2019-03-03T19:43:53.564Z,9.40
2019-03-03T19:46:22.401Z,10.03
2019-03-03T19:48:51.440Z,11.67
2019-03-03T19:51:20.433Z,10.97
2019-03-03T19:53:49.003Z,10.20
2019-03-03T19:56:19.165Z,10.03
2019-03-03T19:58:47.890Z,9.83
2019-03-03T20:01:16.610Z,10.40
2019-03-03T20:03:45.489Z,9.27
2019-03-03T20:06:14.270Z,10.40
2019-03-03T20:08:43.010Z,10.23
2019-03-03T20:11:11.834Z,10.77
2019-03-03T20:13:41.421Z,10.50
2019-03-03T20:16:10.119Z,10.07
2019-03-03T20:18:39.144Z,10.80
2019-03-03T20:21:07.829Z,9.93
2019-03-03T20:23:36.638Z,9.00
2019-03-03T20:26:05.399Z,10.10
2019-03-03T20:28:34.410Z,10.20
2019-03-03T20:31:05.405Z,8.50
2019-03-03T20:33:34.336Z,8.87
2019-03-03T20:36:03.297Z,9.37
2019-03-03T20:38:32.495Z,8.73
2019-03-03T20:41:01.506Z,9.33
2019-03-03T20:43:30.049Z,8.57
2019-03-03T20:45:58.925Z,9.53
2019-03-03T20:48:27.845Z,8.60
2019-03-03T20:50:56.646Z,8.70
2019-03-03T20:53:25.318Z,9.00
2019-03-03T20:55:54.087Z,8.83
2019-03-03T20:58:22.678Z,7.80
2019-03-03T21:00:51.362Z,8.23
2019-03-03T21:03:21.690Z,8.17
2019-03-03T21:05:50.559Z,8.97
2019-03-03T21:08:19.104Z,8.10
2019-03-03T21:10:47.974Z,9.20
2019-03-03T21:13:16.999Z,8.20
2019-03-03T21:15:45.841Z,8.53
2019-03-03T21:18:14.679Z,8.33
2019-03-03T21:20:43.873Z,8.37
2019-03-03T21:23:12.596Z,8.33
2019-03-03T21:25:41.401Z,7.63
2019-03-03T21:28:10.395Z,8.87
2019-03-03T21:30:39.388Z,7.83
2019-03-03T21:33:08.616Z,8.10
2019-03-03T21:35:37.316Z,8.90
2019-03-03T21:38:06.272Z,7.63
2019-03-03T21:40:34.953Z,7.73
2019-03-03T21:43:03.873Z,7.70
2019-03-03T21:45:32.753Z,8.37
2019-03-03T21:48:01.593Z,7.50
2019-03-03T21:50:31.473Z,7.07
2019-03-03T21:53:00.193Z,7.57
2019-03-03T21:55:29.889Z,8.07
2019-03-03T21:57:58.721Z,9.13
2019-03-03T22:00:35.249Z,7.40
2019-03-03T22:03:04.074Z,7.63
2019-03-03T22:05:32.630Z,7.20
2019-03-03T22:08:03.407Z,7.57
2019-03-03T22:10:34.940Z,7.47
2019-03-03T22:13:05.666Z,7.67
2019-03-03T22:15:34.427Z,7.57
2019-03-03T22:18:03.258Z,7.63
2019-03-03T22:20:32.012Z,8.07
2019-03-03T22:23:01.616Z,6.97
2019-03-03T22:25:30.531Z,7.30
2019-03-03T22:27:59.412Z,6.53
2019-03-03T22:30:28.413Z,6.87
2019-03-03T22:32:57.293Z,7.40
2019-03-03T22:35:26.293Z,6.90
2019-03-03T22:37:55.255Z,6.80
2019-03-03T22:40:25.016Z,6.87
2019-03-03T22:42:53.979Z,7.30
2019-03-03T22:45:22.858Z,6.10
2019-03-03T22:47:52.172Z,5.97
2019-03-03T22:50:21.503Z,7.30
2019-03-03T22:52:50.545Z,6.47
2019-03-03T22:55:20.504Z,6.67
2019-03-03T22:57:49.348Z,6.50
2019-03-03T23:00:46.936Z,6.03
2019-03-03T23:03:28.121Z,6.03
2019-03-03T23:06:16.755Z,5.97
2019-03-03T23:08:51.494Z,6.30
2019-03-03T23:11:41.759Z,6.23
2019-03-03T23:14:16.556Z,6.40
2019-03-03T23:16:54.495Z,6.10
2019-03-03T23:19:44.486Z,5.90
2019-03-03T23:22:36.065Z,5.30
2019-03-03T23:25:13.040Z,5.20
2019-03-03T23:27:41.935Z,6.07
2019-03-03T23:30:12.191Z,6.27
2019-03-03T23:32:41.034Z,6.33
2019-03-03T23:35:09.744Z,5.70
2019-03-03T23:37:38.251Z,5.13
2019-03-03T23:40:07.601Z,5.40
2019-03-03T23:42:36.150Z,5.33
2019-03-03T23:45:07.716Z,5.40
2019-03-03T23:47:37.778Z,6.80
2019-03-03T23:50:08.670Z,5.53
2019-03-03T23:52:39.429Z,5.00
2019-03-03T23:55:08.963Z,5.13
2019-03-03T23:57:37.567Z,4.73
